Time;durP1;ratioP1;P1;durP2;ratioP2;P2;SDS_P1;SDS_P2;PMS_P1;PMS_P2;Temp;Humidity;BMP_temperature;BMP_pressure;BME280_temperature;BME280_humidity;BME280_pressure;Samples;Min_cycle;Max_cycle;Signal;HPM_P1;HPM_P2
2023/04/10 04:00:36;;;;;;;36.80;34.13;;;7.80;99.90;;;;;;5903862;23;20373;-77
2023/04/10 04:03:04;;;;;;;0.60;0.20;;;7.80;99.90;;;;;;4906363;29;20460;-77
2023/04/10 04:05:33;;;;;;;0.60;0.10;;;7.80;99.90;;;;;;4902795;29;20446;-79
2023/04/10 04:08:02;;;;;;;0.60;0.10;;;7.70;99.90;;;;;;4901017;29;20441;-77
2023/04/10 04:10:29;;;;;;;0.57;0.13;;;7.70;99.90;;;;;;4900286;29;20456;-76
2023/04/10 04:12:57;;;;;;;0.60;0.10;;;7.70;99.90;;;;;;4900019;29;20454;-75
2023/04/10 04:15:25;;;;;;;0.60;0.30;;;7.70;99.90;;;;;;4928117;23;20999;-72
2023/04/10 04:17:55;;;;;;;0.50;0.10;;;7.70;99.90;;;;;;4899449;29;20763;-73
2023/04/10 04:20:23;;;;;;;0.60;0.10;;;7.70;99.90;;;;;;4899714;29;21004;-73
2023/04/10 04:22:51;;;;;;;11.13;7.30;;;7.60;99.90;;;;;;4898860;29;20506;-73
2023/04/10 04:25:19;;;;;;;2.53;1.03;;;7.60;99.90;;;;;;4888460;29;20523;-73
2023/04/10 04:27:47;;;;;;;0.53;0.10;;;7.50;99.90;;;;;;4880211;29;20456;-73
2023/04/10 04:30:14;;;;;;;1.37;0.70;;;7.50;99.90;;;;;;4879685;29;20965;-73
2023/04/10 04:32:42;;;;;;;0.60;0.10;;;7.50;99.90;;;;;;4881971;29;20453;-73
2023/04/10 04:35:11;;;;;;;0.80;0.50;;;7.50;99.90;;;;;;4878912;29;21024;-75
2023/04/10 04:37:39;;;;;;;0.53;0.10;;;7.40;99.90;;;;;;4878786;29;20459;-73
2023/04/10 04:40:08;;;;;;;0.50;0.10;;;7.40;99.90;;;;;;4878754;29;20884;-73
2023/04/10 04:42:36;;;;;;;0.50;0.10;;;7.40;99.90;;;;;;4879291;29;20825;-73
2023/04/10 04:45:04;;;;;;;0.50;0.20;;;7.40;99.90;;;;;;4896775;29;20473;-73
2023/04/10 04:47:32;;;;;;;0.50;0.10;;;7.40;99.90;;;;;;4890112;29;20473;-73
2023/04/10 04:50:00;;;;;;;0.60;0.20;;;7.40;99.90;;;;;;4891478;29;20449;-74
2023/04/10 04:52:29;;;;;;;0.50;0.10;;;5.70;99.90;;;;;;4880385;29;20466;-74
2023/04/10 04:54:57;;;;;;;0.50;0.10;;;7.40;99.90;;;;;;4878313;29;20497;-74
2023/04/10 04:57:24;;;;;;;0.50;0.10;;;8.30;99.90;;;;;;4878345;29;20957;-73
2023/04/10 04:59:52;;;;;;;0.60;0.10;;;7.40;99.90;;;;;;4878625;29;20479;-73
2023/04/10 05:02:21;;;;;;;0.50;0.10;;;7.40;99.90;;;;;;4878917;29;20469;-74
2023/04/10 05:04:49;;;;;;;1.90;1.80;;;7.40;99.90;;;;;;4879025;29;20522;-73
2023/04/10 05:07:17;;;;;;;0.50;0.10;;;7.40;99.90;;;;;;4885596;29;20455;-72
2023/04/10 05:09:46;;;;;;;0.50;0.10;;;7.40;99.90;;;;;;4871768;29;20461;-73
2023/04/10 05:12:14;;;;;;;0.50;0.10;;;7.50;99.90;;;;;;4886725;29;20790;-73
2023/04/10 05:14:42;;;;;;;0.50;0.10;;;7.50;99.90;;;;;;4897062;29;20500;-73
2023/04/10 05:17:10;;;;;;;0.60;0.10;;;7.50;99.90;;;;;;4897265;29;20524;-73
2023/04/10 05:19:37;;;;;;;0.50;0.10;;;7.50;99.90;;;;;;4895266;29;20817;-74
2023/04/10 05:22:05;;;;;;;1.80;1.50;;;7.50;99.90;;;;;;4884494;29;20465;-73
2023/04/10 05:24:33;;;;;;;1.77;1.67;;;7.60;99.90;;;;;;4888119;29;20538;-73
2023/04/10 05:27:02;;;;;;;0.50;0.10;;;7.50;99.90;;;;;;4897856;29;20453;-72
2023/04/10 05:29:33;;;;;;;0.50;0.10;;;7.60;99.90;;;;;;4895674;29;20457;-73
2023/04/10 05:32:01;;;;;;;2.93;1.90;;;7.60;99.90;;;;;;4878700;29;20516;-73
2023/04/10 05:34:29;;;;;;;0.50;0.10;;;7.60;99.90;;;;;;4885285;29;20566;-72
2023/04/10 05:36:56;;;;;;;0.50;0.10;;;7.60;99.90;;;;;;4890273;29;20460;-73
2023/04/10 05:39:25;;;;;;;0.50;0.10;;;7.70;99.90;;;;;;4881239;29;20506;-74
2023/04/10 05:41:53;;;;;;;0.60;0.40;;;7.70;99.90;;;;;;4879348;29;20972;-74
2023/04/10 05:44:22;;;;;;;0.50;0.20;;;7.80;99.90;;;;;;4879819;29;21024;-73
2023/04/10 05:46:50;;;;;;;0.60;0.10;;;7.80;99.90;;;;;;4890079;29;20453;-74
2023/04/10 05:49:18;;;;;;;0.50;0.10;;;7.90;99.90;;;;;;4890720;29;21060;-73
2023/04/10 05:51:49;;;;;;;0.60;0.10;;;8.00;99.90;;;;;;4898645;29;20533;-73
2023/04/10 05:54:16;;;;;;;0.50;0.10;;;8.00;99.90;;;;;;4880975;29;20474;-74
2023/04/10 05:56:44;;;;;;;0.50;0.10;;;8.00;99.90;;;;;;4882181;29;21008;-73
2023/04/10 05:59:12;;;;;;;0.60;0.60;;;8.10;99.90;;;;;;4889807;29;20980;-73
2023/04/10 06:01:41;;;;;;;0.50;0.10;;;8.10;99.90;;;;;;4893673;29;20450;-73
2023/04/10 06:04:09;;;;;;;0.60;0.20;;;8.10;99.90;;;;;;4889515;29;20565;-72
2023/04/10 06:06:38;;;;;;;2.63;2.43;;;8.10;99.90;;;;;;4900418;29;20446;-73
2023/04/10 06:09:06;;;;;;;0.50;0.10;;;8.10;99.90;;;;;;4900795;29;20808;-72
2023/04/10 06:11:33;;;;;;;0.50;0.20;;;8.00;99.90;;;;;;4893080;29;20973;-73
2023/04/10 06:14:02;;;;;;;0.50;0.10;;;8.10;99.90;;;;;;4888182;29;20478;-73
2023/04/10 06:16:29;;;;;;;0.53;0.10;;;8.10;99.90;;;;;;4883936;29;20482;-73
2023/04/10 06:18:59;;;;;;;2.30;2.10;;;8.10;99.90;;;;;;4885943;29;20470;-73
2023/04/10 06:21:27;;;;;;;0.57;0.10;;;8.20;99.90;;;;;;4886000;29;20750;-73
2023/04/10 06:23:54;;;;;;;0.50;0.10;;;8.20;99.90;;;;;;4886555;29;20450;-73
2023/04/10 06:26:24;;;;;;;0.70;0.60;;;8.20;99.90;;;;;;4889918;29;20454;-73
2023/04/10 06:28:52;;;;;;;0.60;0.10;;;8.30;99.90;;;;;;4886775;29;20458;-73
2023/04/10 06:31:21;;;;;;;0.50;0.10;;;8.40;99.90;;;;;;4883109;29;20511;-73
2023/04/10 06:33:50;;;;;;;0.50;0.10;;;7.50;99.90;;;;;;4890673;29;20452;-73
2023/04/10 06:36:19;;;;;;;0.50;0.20;;;8.50;99.90;;;;;;4882639;29;20482;-73
2023/04/10 06:38:47;;;;;;;0.50;0.10;;;8.50;99.90;;;;;;4881865;29;20908;-73
2023/04/10 06:41:15;;;;;;;0.60;0.30;;;8.50;99.90;;;;;;4880996;29;20506;-74
2023/04/10 06:43:42;;;;;;;0.50;0.10;;;8.60;99.90;;;;;;4882372;29;20442;-72
2023/04/10 06:46:10;;;;;;;0.60;0.10;;;8.60;99.90;;;;;;4892687;29;20583;-73
2023/04/10 06:48:38;;;;;;;0.50;0.10;;;8.70;99.90;;;;;;4893942;29;20494;-73
2023/04/10 06:51:06;;;;;;;0.60;0.10;;;8.70;99.90;;;;;;4893726;29;20526;-72
2023/04/10 06:53:36;;;;;;;0.60;0.10;;;8.70;99.90;;;;;;4894017;29;20482;-72
2023/04/10 06:56:04;;;;;;;1.40;1.30;;;8.80;99.90;;;;;;4894806;29;20490;-72
2023/04/10 06:58:32;;;;;;;0.60;0.10;;;8.90;99.90;;;;;;4875489;29;20483;-73
2023/04/10 07:01:03;;;;;;;0.60;0.10;;;8.90;99.90;;;;;;4882086;29;20966;-73
2023/04/10 07:03:32;;;;;;;0.60;0.10;;;8.90;99.90;;;;;;4890498;29;20446;-74
2023/04/10 07:06:01;;;;;;;0.60;0.20;;;9.00;99.90;;;;;;4882632;29;20470;-73
2023/04/10 07:08:29;;;;;;;0.60;0.30;;;9.10;99.90;;;;;;4881779;29;20518;-73
2023/04/10 07:10:59;;;;;;;0.60;0.17;;;9.20;99.90;;;;;;4881623;29;20586;-74
2023/04/10 07:13:26;;;;;;;0.60;0.10;;;9.20;99.90;;;;;;4881342;29;20458;-73
2023/04/10 07:15:54;;;;;;;0.60;0.10;;;9.30;99.90;;;;;;4880897;29;20500;-72
2023/04/10 07:18:22;;;;;;;0.60;0.10;;;9.30;99.90;;;;;;4883462;29;20465;-74
2023/04/10 07:20:51;;;;;;;0.60;0.10;;;9.40;99.90;;;;;;4880381;29;20503;-72
2023/04/10 07:23:19;;;;;;;0.60;0.10;;;9.50;99.90;;;;;;4881380;29;20526;-73
2023/04/10 07:25:47;;;;;;;4.00;3.80;;;9.50;99.90;;;;;;4880773;29;21035;-74
2023/04/10 07:28:16;;;;;;;0.80;0.50;;;9.60;99.90;;;;;;4880498;29;20461;-71
2023/04/10 07:30:44;;;;;;;0.50;0.10;;;9.70;99.90;;;;;;4880559;29;20459;-73
2023/04/10 07:33:11;;;;;;;0.60;0.10;;;9.70;99.90;;;;;;4882138;29;20457;-72
2023/04/10 07:35:40;;;;;;;0.60;0.20;;;9.80;99.90;;;;;;4898943;29;20542;-73
2023/04/10 07:38:08;;;;;;;0.60;0.10;;;9.90;99.90;;;;;;4895665;29;21017;-73
2023/04/10 07:40:36;;;;;;;0.60;0.10;;;9.90;99.90;;;;;;4880572;29;20488;-72
2023/04/10 07:43:03;;;;;;;1.20;0.87;;;10.00;99.90;;;;;;4882449;29;20454;-73
2023/04/10 07:45:33;;;;;;;0.60;0.10;;;10.10;99.90;;;;;;4884205;29;20464;-73
2023/04/10 07:48:01;;;;;;;0.70;0.50;;;10.20;99.90;;;;;;4880993;29;20507;-73
2023/04/10 07:50:30;;;;;;;1.03;0.50;;;10.20;99.90;;;;;;4883232;29;20549;-73
2023/04/10 07:53:02;;;;;;;2.03;0.97;;;10.30;99.90;;;;;;4882180;29;20485;-74
2023/04/10 07:55:30;;;;;;;0.60;0.10;;;10.30;99.90;;;;;;4879041;29;20565;-72
2023/04/10 07:57:58;;;;;;;0.60;0.20;;;10.30;99.90;;;;;;4883644;29;20478;-73
2023/04/10 08:00:25;;;;;;;1.97;0.77;;;10.40;99.90;;;;;;4885967;29;20456;-73
2023/04/10 08:02:55;;;;;;;0.60;0.10;;;;;;;;;;4883245;29;20447;-73
2023/04/10 08:05:23;;;;;;;0.60;0.10;;;10.60;99.90;;;;;;4898190;29;20470;-74
2023/04/10 08:07:51;;;;;;;0.60;0.20;;;10.70;99.90;;;;;;4894362;29;20819;-73
2023/04/10 08:10:19;;;;;;;0.60;0.37;;;10.80;99.90;;;;;;4886874;29;20462;-74
2023/04/10 08:12:47;;;;;;;0.60;0.10;;;10.80;99.90;;;;;;4892900;29;20960;-74
2023/04/10 08:15:15;;;;;;;0.60;0.10;;;10.90;99.90;;;;;;4881642;29;20486;-72
2023/04/10 08:17:42;;;;;;;2.77;2.57;;;11.10;99.90;;;;;;4873205;29;21004;-72
2023/04/10 08:20:13;;;;;;;0.60;0.10;;;11.10;99.90;;;;;;4883319;29;20443;-71
2023/04/10 08:22:40;;;;;;;0.60;0.10;;;11.20;99.90;;;;;;4879436;29;20461;-72
2023/04/10 08:25:09;;;;;;;0.80;0.50;;;11.30;99.90;;;;;;4883983;29;20506;-72
2023/04/10 08:27:37;;;;;;;0.60;0.10;;;11.40;99.90;;;;;;4879435;29;20454;-72
2023/04/10 08:30:06;;;;;;;0.93;0.70;;;11.50;99.90;;;;;;4888927;29;20934;-71
2023/04/10 08:32:34;;;;;;;0.60;0.10;;;11.60;99.90;;;;;;4889359;29;20841;-71
2023/04/10 08:35:02;;;;;;;0.60;0.10;;;11.80;99.90;;;;;;4892964;29;20993;-72
2023/04/10 08:37:31;;;;;;;0.60;0.10;;;13.90;99.90;;;;;;4887213;29;20495;-72
2023/04/10 08:39:59;;;;;;;1.70;1.60;;;11.90;99.90;;;;;;4886350;29;20451;-71
2023/04/10 08:42:27;;;;;;;1.63;1.27;;;12.00;99.90;;;;;;4886383;29;20475;-71
2023/04/10 08:44:55;;;;;;;0.60;0.10;;;12.10;99.90;;;;;;4884553;29;21018;-76
2023/04/10 08:47:27;;;;;;;0.60;0.10;;;12.20;99.90;;;;;;4886457;29;20490;-73
2023/04/10 08:49:57;;;;;;;0.60;0.10;;;12.20;99.90;;;;;;4879718;29;20453;-74
2023/04/10 08:52:26;;;;;;;0.97;0.93;;;12.30;99.90;;;;;;4880030;29;20479;-72
2023/04/10 08:54:57;;;;;;;0.60;0.10;;;12.50;99.90;;;;;;4879746;29;20476;-74
2023/04/10 08:57:26;;;;;;;2.30;1.13;;;12.50;99.90;;;;;;4880104;29;20524;-73
2023/04/10 08:59:54;;;;;;;1.37;0.80;;;12.50;99.90;;;;;;4880124;29;20473;-73
2023/04/10 09:02:22;;;;;;;0.60;0.10;;;12.90;99.90;;;;;;4879148;29;20457;-75
2023/04/10 09:04:53;;;;;;;3.60;1.03;;;12.80;99.90;;;;;;4878978;29;20530;-74
2023/04/10 09:07:22;;;;;;;0.60;0.20;;;12.80;99.90;;;;;;4878880;29;20458;-73
2023/04/10 09:09:50;;;;;;;0.80;0.40;;;12.90;99.90;;;;;;4878506;29;20483;-74
2023/04/10 09:12:19;;;;;;;0.70;0.20;;;13.00;99.90;;;;;;4878452;29;20461;-72
2023/04/10 09:14:52;;;;;;;0.60;0.30;;;13.20;99.90;;;;;;4878563;29;20524;-72
2023/04/10 09:17:21;;;;;;;0.60;0.10;;;13.30;99.90;;;;;;4879967;29;20490;-73
2023/04/10 09:19:51;;;;;;;0.83;0.73;;;13.40;99.90;;;;;;4878633;29;20460;-74
2023/04/10 09:22:28;;;;;;;0.60;0.10;;;13.50;99.90;;;;;;4878546;29;20453;-74
2023/04/10 09:24:58;;;;;;;0.60;0.10;;;13.70;99.90;;;;;;4875572;29;20489;-75
2023/04/10 09:27:32;;;;;;;0.60;0.10;;;13.70;99.90;;;;;;4877606;29;20457;-75
2023/04/10 09:30:00;;;;;;;0.60;0.10;;;13.90;99.90;;;;;;4879951;29;21240;-74
2023/04/10 09:32:40;;;;;;;2.57;2.43;;;14.00;99.90;;;;;;4888661;29;20464;-73
2023/04/10 09:35:09;;;;;;;6.50;5.00;;;14.30;99.90;;;;;;4887991;29;20473;-74
2023/04/10 09:37:39;;;;;;;0.60;0.10;;;14.40;99.90;;;;;;4886367;29;20495;-73
2023/04/10 09:40:20;;;;;;;3.27;3.13;;;14.50;99.90;;;;;;4875446;29;20462;-73
2023/04/10 09:42:49;;;;;;;0.60;0.10;;;14.50;99.90;;;;;;4886485;29;20443;-72
2023/04/10 09:45:19;;;;;;;0.60;0.10;;;14.70;99.90;;;;;;4884922;29;20492;-74
2023/04/10 09:48:01;;;;;;;1.53;1.43;;;14.70;99.90;;;;;;4884029;29;20453;-73
2023/04/10 09:50:35;;;;;;;0.60;0.20;;;14.80;99.90;;;;;;4885524;29;20477;-73
2023/04/10 09:53:07;;;;;;;3.50;3.30;;;14.90;99.90;;;;;;4885819;29;20533;-73
2023/04/10 09:55:35;;;;;;;0.60;0.30;;;15.00;99.90;;;;;;4898752;29;20481;-74
2023/04/10 09:58:05;;;;;;;0.60;0.10;;;15.00;99.90;;;;;;4897232;29;20476;-74
2023/04/10 10:00:38;;;;;;;0.60;0.20;;;15.10;99.90;;;;;;4869751;29;20454;-73
2023/04/10 10:03:09;;;;;;;0.70;0.20;;;15.10;99.90;;;;;;4893127;29;20448;-72
2023/04/10 10:05:41;;;;;;;0.97;0.47;;;15.10;97.90;;;;;;4885882;29;20474;-73
2023/04/10 10:08:11;;;;;;;0.60;0.10;;;15.10;99.90;;;;;;4884915;29;20533;-72
2023/04/10 10:10:44;;;;;;;0.60;0.10;;;15.20;98.50;;;;;;4889526;29;20794;-72
2023/04/10 10:13:17;;;;;;;0.60;0.20;;;15.30;99.90;;;;;;4898396;29;20464;-72
2023/04/10 10:15:50;;;;;;;0.60;0.20;;;15.30;97.10;;;;;;4888164;29;20513;-74
2023/04/10 10:18:24;;;;;;;0.60;0.10;;;15.30;99.90;;;;;;4897113;29;20501;-72
2023/04/10 10:20:53;;;;;;;0.60;0.10;;;15.40;99.90;;;;;;4888071;29;20465;-75
2023/04/10 10:23:22;;;;;;;0.60;0.20;;;15.50;99.90;;;;;;4889578;29;20446;-76
2023/04/10 10:25:52;;;;;;;0.60;0.10;;;15.60;97.80;;;;;;4889486;29;20480;-72
2023/04/10 10:28:22;;;;;;;0.60;0.10;;;15.60;99.90;;;;;;4896739;29;20458;-72
2023/04/10 10:30:50;;;;;;;0.60;0.10;;;15.70;99.90;;;;;;4881444;29;20463;-73
2023/04/10 10:33:18;;;;;;;2.80;1.23;;;15.70;99.90;;;;;;4887096;29;20458;-73
2023/04/10 10:35:47;;;;;;;0.87;0.40;;;15.80;97.20;;;;;;4893674;29;20477;-75
2023/04/10 10:38:15;;;;;;;0.87;0.83;;;15.90;99.90;;;;;;4884342;29;20991;-74
2023/04/10 10:40:49;;;;;;;0.83;0.57;;;16.00;99.90;;;;;;4886739;29;20835;-75
2023/04/10 10:43:25;;;;;;;0.60;0.20;;;16.00;99.90;;;;;;4890148;29;20457;-73
2023/04/10 10:45:59;;;;;;;0.60;0.20;;;16.10;95.40;;;;;;4889337;29;20466;-72
2023/04/10 10:48:27;;;;;;;0.60;0.10;;;16.20;99.90;;;;;;4884013;29;20440;-72
2023/04/10 10:50:57;;;;;;;0.60;0.10;;;16.30;99.90;;;;;;4883623;29;20495;-75
2023/04/10 10:53:40;;;;;;;0.60;0.10;;;16.40;99.90;;;;;;4884335;29;20758;-73
2023/04/10 10:56:33;;;;;;;0.60;0.10;;;16.50;96.00;;;;;;4885593;29;21031;-72
2023/04/10 10:59:03;;;;;;;3.37;0.67;;;16.60;99.90;;;;;;4880617;29;20599;-73
2023/04/10 11:01:31;;;;;;;0.67;0.57;;;16.70;99.30;;;;;;4891867;29;20457;-73
2023/04/10 11:04:00;;;;;;;0.60;0.10;;;16.80;93.70;;;;;;4884393;29;20473;-74
2023/04/10 11:06:51;;;;;;;0.60;0.10;;;16.80;99.00;;;;;;4896873;29;20454;-74
2023/04/10 11:09:50;;;;;;;0.70;0.40;;;17.00;97.90;;;;;;4880125;29;20446;-74
2023/04/10 11:12:21;;;;;;;1.70;1.60;;;17.10;96.80;;;;;;4884492;29;20461;-74
2023/04/10 11:15:00;;;;;;;0.60;0.10;;;17.20;93.20;;;;;;4890515;29;20559;-74
2023/04/10 11:17:52;;;;;;;0.60;0.10;;;17.30;98.20;;;;;;4880910;29;20476;-73
2023/04/10 11:20:25;;;;;;;0.60;0.20;;;17.40;97.60;;;;;;4883750;29;20447;-74
2023/04/10 11:23:10;;;;;;;0.90;0.73;;;17.50;96.70;;;;;;4882881;29;20488;-75
2023/04/10 11:25:51;;;;;;;0.60;0.20;;;17.60;91.90;;;;;;4893868;29;20493;-74
2023/04/10 11:28:39;;;;;;;1.57;1.47;;;17.50;96.70;;;;;;4896069;29;20555;-75
2023/04/10 11:31:22;;;;;;;0.60;0.10;;;17.60;96.90;;;;;;4889926;29;20447;-74
2023/04/10 11:34:02;;;;;;;0.70;0.40;;;17.70;95.80;;;;;;4888864;29;20471;-74
2023/04/10 11:36:32;;;;;;;0.60;0.10;;;17.70;88.30;;;;;;4892905;29;20873;-74
2023/04/10 11:39:01;;;;;;;0.60;0.10;;;17.80;94.20;;;;;;4889568;29;20491;-74
2023/04/10 11:41:31;;;;;;;0.60;0.20;;;17.90;93.20;;;;;;4886817;29;20978;-73
2023/04/10 11:44:02;;;;;;;0.60;0.10;;;18.00;88.30;;;;;;4879867;29;20465;-72
2023/04/10 11:46:32;;;;;;;0.60;0.10;;;18.00;88.10;;;;;;4882486;29;20461;-75
2023/04/10 11:49:06;;;;;;;0.60;0.20;;;18.00;88.70;;;;;;4882541;29;20833;-73
2023/04/10 11:51:36;;;;;;;0.60;0.10;;;18.00;90.40;;;;;;4893917;29;20448;-73
2023/04/10 11:54:06;;;;;;;0.60;0.20;;;18.20;76.90;;;;;;4889216;29;20870;-72
2023/04/10 11:56:35;;;;;;;0.60;0.10;;;18.20;89.20;;;;;;4890633;29;20458;-71
2023/04/10 11:59:06;;;;;;;0.60;0.10;;;18.30;88.70;;;;;;4890293;29;20537;-75
2023/04/10 12:01:35;;;;;;;0.60;0.10;;;18.40;89.00;;;;;;4891147;29;20491;-75
2023/04/10 12:04:05;;;;;;;0.60;0.10;;;18.50;76.10;;;;;;4902420;29;20460;-73
2023/04/10 12:06:33;;;;;;;0.60;0.10;;;18.50;87.90;;;;;;4886024;29;20541;-72
2023/04/10 12:09:12;;;;;;;0.60;0.10;;;18.60;85.10;;;;;;4887573;29;20454;-73
2023/04/10 12:11:49;;;;;;;0.70;0.37;;;18.80;84.90;;;;;;4880874;29;20457;-73
2023/04/10 12:14:17;;;;;;;0.60;0.10;;;18.90;65.80;;;;;;4882928;29;20865;-73
2023/04/10 12:16:47;;;;;;;0.60;0.10;;;18.90;76.60;;;;;;4886653;29;20473;-74
2023/04/10 12:19:16;;;;;;;0.60;0.10;;;18.90;73.10;;;;;;4885962;29;20489;-73
2023/04/10 12:21:45;;;;;;;0.60;0.10;;;18.90;68.40;;;;;;4879629;29;20459;-74
2023/04/10 12:24:13;;;;;;;0.60;0.10;;;18.80;53.10;;;;;;4876772;29;20473;-71
2023/04/10 12:26:48;;;;;;;0.60;0.10;;;18.80;64.80;;;;;;4876603;29;20446;-73
2023/04/10 12:29:16;;;;;;;0.60;0.10;;;18.80;60.50;;;;;;4877873;29;20454;-74
2023/04/10 12:31:44;;;;;;;0.60;0.10;;;18.90;60.50;;;;;;4877897;29;20462;-74
2023/04/10 12:34:18;;;;;;;0.70;0.30;;;19.10;48.30;;;;;;4888554;29;20563;-72
2023/04/10 12:36:52;;;;;;;0.60;0.20;;;19.10;58.30;;;;;;4898248;29;20820;-69
2023/04/10 12:39:25;;;;;;;0.60;0.10;;;19.10;60.20;;;;;;4898362;29;20485;-67
2023/04/10 12:41:53;;;;;;;0.60;0.10;;;19.20;62.80;;;;;;4883757;29;20458;-68
2023/04/10 12:44:21;;;;;;;0.60;0.10;;;19.50;52.00;;;;;;4878503;29;20466;-73
2023/04/10 12:46:49;;;;;;;0.60;0.10;;;19.50;59.20;;;;;;4885326;29;20467;-73
2023/04/10 12:49:18;;;;;;;0.60;0.10;;;19.20;52.30;;;;;;4881139;29;20468;-72
2023/04/10 12:51:48;;;;;;;0.60;0.10;;;19.60;53.30;;;;;;4876657;29;20459;-77
2023/04/10 12:54:30;;;;;;;0.60;0.10;;;19.90;40.60;;;;;;4878606;29;20852;-72
2023/04/10 12:56:58;;;;;;;0.60;0.10;;;19.90;38.20;;;;;;4877681;29;20466;-75
2023/04/10 12:59:26;;;;;;;0.60;0.10;;;19.90;46.40;;;;;;4878466;29;20482;-72
2023/04/10 13:01:54;;;;;;;0.60;0.20;;;20.00;46.50;;;;;;4878512;29;20462;-72
2023/04/10 13:04:24;;;;;;;0.60;0.20;;;20.00;33.90;;;;;;4876355;29;20474;-75
2023/04/10 13:06:52;;;;;;;0.60;0.10;;;20.00;44.70;;;;;;4882173;29;20455;-76
2023/04/10 13:09:21;;;;;;;0.60;0.10;;;20.10;43.30;;;;;;4887556;29;20480;-72
2023/04/10 13:11:49;;;;;;;0.60;0.10;;;20.10;41.10;;;;;;4876823;29;20462;-74
2023/04/10 13:14:18;;;;;;;0.60;0.10;;;20.00;30.10;;;;;;4878299;29;20537;-72
2023/04/10 13:16:46;;;;;;;0.60;0.10;;;20.00;41.00;;;;;;4877831;29;20954;-72
2023/04/10 13:19:14;;;;;;;0.60;0.10;;;20.00;38.60;;;;;;4878985;29;20511;-72
2023/04/10 13:21:43;;;;;;;0.60;0.10;;;20.00;37.60;;;;;;4877440;29;20454;-75
2023/04/10 13:24:11;;;;;;;0.70;0.20;;;20.20;29.10;;;;;;4878120;29;20454;-74
2023/04/10 13:26:42;;;;;;;0.60;0.10;;;20.20;38.30;;;;;;4878696;29;20451;-72
2023/04/10 13:29:10;;;;;;;0.60;0.17;;;20.30;35.40;;;;;;4879915;29;20447;-72
2023/04/10 13:31:38;;;;;;;0.60;0.10;;;20.40;35.70;;;;;;4882942;29;20463;-73
2023/04/10 13:34:05;;;;;;;0.60;0.10;;;20.40;24.80;;;;;;4891578;29;20454;-75
2023/04/10 13:36:33;;;;;;;0.60;0.10;;;20.50;33.10;;;;;;4893470;29;20475;-75
2023/04/10 13:39:03;;;;;;;0.70;0.50;;;20.40;32.70;;;;;;4895683;29;20919;-74
2023/04/10 13:41:31;;;;;;;0.60;0.20;;;20.50;33.70;;;;;;4901546;29;20477;-74
2023/04/10 13:44:00;;;;;;;0.60;0.10;;;20.40;25.00;;;;;;4889557;29;20463;-73
2023/04/10 13:46:29;;;;;;;0.60;0.20;;;20.40;33.10;;;;;;4882869;29;20451;-73
2023/04/10 13:48:57;;;;;;;0.60;0.10;;;20.40;33.10;;;;;;4882396;29;20491;-73
2023/04/10 13:51:26;;;;;;;0.60;0.10;;;20.50;33.90;;;;;;4881896;29;20450;-73
2023/04/10 13:53:54;;;;;;;1.10;0.80;;;20.60;30.80;;;;;;4883105;29;20840;-73
2023/04/10 13:56:23;;;;;;;0.60;0.20;;;20.50;21.60;;;;;;4883249;29;20951;-74
2023/04/10 13:58:51;;;;;;;0.60;0.10;;;20.50;31.50;;;;;;4882363;29;20451;-73
2023/04/10 14:01:20;;;;;;;0.60;0.20;;;20.30;28.50;;;;;;4882243;29;20847;-73
2023/04/10 14:03:48;;;;;;;1.70;0.97;;;;;;;;;;4881419;29;20466;-75
2023/04/10 14:06:16;;;;;;;0.60;0.20;;;21.80;19.00;;;;;;4886009;29;20591;-73
2023/04/10 14:08:44;;;;;;;0.60;0.10;;;20.10;18.60;;;;;;4885460;29;20456;-74
2023/04/10 14:11:12;;;;;;;0.60;0.10;;;20.10;19.90;;;;;;4886826;29;20453;-74
2023/04/10 14:13:41;;;;;;;0.60;0.10;;;20.30;23.80;;;;;;4882087;29;20460;-75
2023/04/10 14:16:10;;;;;;;0.60;0.10;;;20.40;23.70;;;;;;4892107;29;20481;-74
2023/04/10 14:18:38;;;;;;;0.60;0.13;;;20.50;32.60;;;;;;4895626;29;20447;-75
2023/04/10 14:21:07;;;;;;;0.60;0.20;;;20.60;34.10;;;;;;4895125;29;20490;-74
2023/04/10 14:23:35;;;;;;;0.60;0.10;;;20.80;33.90;;;;;;4882386;29;20455;-73
2023/04/10 14:26:05;;;;;;;0.60;0.10;;;20.90;23.90;;;;;;4889598;29;20848;-73
2023/04/10 14:28:33;;;;;;;0.60;0.20;;;21.10;19.90;;;;;;4889109;29;20463;-74
2023/04/10 14:31:02;;;;;;;0.60;0.20;;;21.10;28.30;;;;;;4884125;29;20451;-75
2023/04/10 14:33:30;;;;;;;0.60;0.20;;;21.00;31.40;;;;;;4894658;29;20530;-74
2023/04/10 14:35:58;;;;;;;0.60;0.10;;;21.10;25.50;;;;;;4887954;29;20472;-76
2023/04/10 14:38:26;;;;;;;0.60;0.10;;;21.10;33.30;;;;;;4890602;29;20537;-76
2023/04/10 14:40:53;;;;;;;0.60;0.20;;;21.20;23.40;;;;;;4887992;29;21026;-74
2023/04/10 14:43:21;;;;;;;0.60;0.10;;;21.20;30.70;;;;;;4885490;29;20527;-75
2023/04/10 14:45:49;;;;;;;0.60;0.10;;;21.20;24.30;;;;;;4899116;29;20482;-74
2023/04/10 14:48:19;;;;;;;0.60;0.10;;;21.20;34.00;;;;;;4884265;29;20453;-74
2023/04/10 14:50:48;;;;;;;0.60;0.20;;;21.20;31.00;;;;;;4890289;29;20960;-73
2023/04/10 14:53:16;;;;;;;0.60;0.20;;;21.20;32.60;;;;;;4895401;29;20465;-74
2023/04/10 14:55:44;;;;;;;0.60;0.20;;;21.30;20.90;;;;;;4893938;29;20490;-74
2023/04/10 14:58:11;;;;;;;0.60;0.10;;;21.20;27.90;;;;;;4899762;29;20454;-75
2023/04/10 15:00:40;;;;;;;0.60;0.10;;;21.10;19.30;;;;;;4881133;29;20546;-76
2023/04/10 15:03:07;;;;;;;0.60;0.10;;;21.00;18.90;;;;;;4885972;29;20475;-74
2023/04/10 15:05:37;;;;;;;0.60;0.10;;;21.00;19.00;;;;;;4889291;29;20519;-74
2023/04/10 15:08:05;;;;;;;0.60;0.10;;;21.00;28.10;;;;;;4886612;29;20451;-73
2023/04/10 15:10:32;;;;;;;0.60;0.10;;;21.00;27.60;;;;;;4883489;29;20448;-74
2023/04/10 15:13:00;;;;;;;0.60;0.20;;;21.00;27.50;;;;;;4893255;29;20452;-74
2023/04/10 15:15:28;;;;;;;0.60;0.10;;;20.90;21.30;;;;;;4888471;29;20486;-72
2023/04/10 15:17:57;;;;;;;0.60;0.10;;;20.90;28.70;;;;;;4886954;29;20455;-73
2023/04/10 15:20:25;;;;;;;0.60;0.20;;;20.90;18.30;;;;;;4881589;29;20479;-74
2023/04/10 15:22:54;;;;;;;0.60;0.10;;;20.80;26.90;;;;;;4894400;29;20443;-72
2023/04/10 15:25:22;;;;;;;0.60;0.20;;;;;;;;;;4887491;29;20482;-75
2023/04/10 15:27:50;;;;;;;0.60;0.10;;;20.70;19.80;;;;;;4887124;29;20459;-74
2023/04/10 15:30:18;;;;;;;0.60;0.20;;;20.70;25.40;;;;;;4881889;29;20805;-72
2023/04/10 15:32:46;;;;;;;0.60;0.10;;;20.70;23.30;;;;;;4896846;29;20450;-74
2023/04/10 15:35:14;;;;;;;0.60;0.10;;;20.80;13.20;;;;;;4888915;29;20483;-74
2023/04/10 15:37:41;;;;;;;0.60;0.20;;;20.80;20.10;;;;;;4889910;29;20878;-73
2023/04/10 15:40:11;;;;;;;0.60;0.10;;;20.80;18.30;;;;;;4883846;29;20514;-74
2023/04/10 15:42:39;;;;;;;0.60;0.10;;;20.70;11.80;;;;;;4894581;29;20828;-71
2023/04/10 15:45:07;;;;;;;0.60;0.10;;;20.80;13.80;;;;;;4884877;29;20846;-72
2023/04/10 15:47:35;;;;;;;0.60;0.10;;;20.70;12.40;;;;;;4896475;29;20450;-74
2023/04/10 15:50:04;;;;;;;0.60;0.10;;;20.70;19.20;;;;;;4897090;29;20549;-74
2023/04/10 15:52:32;;;;;;;0.60;0.10;;;20.70;18.30;;;;;;4881611;29;20451;-74
2023/04/10 15:55:00;;;;;;;0.60;0.10;;;20.90;11.70;;;;;;4892801;29;20501;-74
2023/04/10 15:57:29;;;;;;;0.60;0.10;;;21.10;11.90;;;;;;4879234;29;20886;-74
2023/04/10 15:59:59;;;;;;;0.60;0.20;;;21.10;20.20;;;;;;4879573;29;20455;-74
2023/04/10 16:02:27;;;;;;;0.60;0.20;;;21.40;21.40;;;;;;4894234;29;20986;-73
2023/04/10 16:04:55;;;;;;;0.70;0.20;;;22.30;12.30;;;;;;4883382;29;20466;-75
2023/04/10 16:07:23;;;;;;;0.70;0.20;;;22.60;1.00;;;;;;4889885;29;20457;-73
2023/04/10 16:09:53;;;;;;;0.70;0.20;;;22.90;1.00;;;;;;4891053;29;20458;-73
2023/04/10 16:12:21;;;;;;;0.70;0.10;;;23.50;1.00;;;;;;4882381;29;20453;-72
2023/04/10 16:14:57;;;;;;;0.70;0.10;;;23.70;1.00;;;;;;5089182;27;21115;-73
2023/04/10 16:17:25;;;;;;;0.70;0.10;;;23.70;1.00;;;;;;5074082;28;20466;-71
2023/04/10 16:19:53;;;;;;;0.70;0.10;;;23.60;1.00;;;;;;5070747;28;20518;-72
2023/04/10 16:22:22;;;;;;;0.70;0.13;;;23.40;1.00;;;;;;5070003;28;20450;-71
2023/04/10 16:24:54;;;;;;;0.70;0.10;;;22.90;1.00;;;;;;5069151;28;20459;-71
2023/04/10 16:27:22;;;;;;;0.80;0.40;;;22.70;1.00;;;;;;5057812;28;20462;-71
2023/04/10 16:29:50;;;;;;;0.70;0.10;;;22.50;1.00;;;;;;5069593;28;20908;-72
2023/04/10 16:32:20;;;;;;;0.60;0.10;;;22.20;1.00;;;;;;5069941;28;20444;-71
2023/04/10 16:34:47;;;;;;;0.63;0.20;;;21.80;1.00;;;;;;5066981;28;20515;-71
2023/04/10 16:37:15;;;;;;;0.60;0.10;;;21.50;1.00;;;;;;5071348;28;20449;-71
2023/04/10 16:39:44;;;;;;;0.60;0.10;;;21.40;1.00;;;;;;5066926;28;20489;-71
2023/04/10 16:42:12;;;;;;;0.60;0.20;;;21.20;1.00;;;;;;5070221;28;20454;-72
2023/04/10 16:44:40;;;;;;;0.60;0.10;;;20.90;1.00;;;;;;5072536;28;20462;-71
2023/04/10 16:47:08;;;;;;;0.60;0.10;;;20.80;1.00;;;;;;5083358;28;20443;-72
2023/04/10 16:49:39;;;;;;;0.60;0.10;;;20.60;1.00;;;;;;5079699;28;20536;-72
2023/04/10 16:52:07;;;;;;;0.60;0.10;;;20.30;1.00;;;;;;5075135;28;20447;-72
2023/04/10 16:54:35;;;;;;;0.60;0.10;;;20.20;1.00;;;;;;5069702;28;20981;-72
2023/04/10 16:57:03;;;;;;;0.60;0.10;;;20.20;1.00;;;;;;5069836;28;20454;-72
2023/04/10 16:59:31;;;;;;;0.60;0.10;;;20.00;1.00;;;;;;5069402;28;20511;-71
2023/04/10 17:02:00;;;;;;;0.60;0.10;;;19.90;1.00;;;;;;5065830;28;20633;-72